Time,TemperatureF,DewpointF,PressureIn,WindDirection,WindDirectionDegrees,WindSpeedMPH,WindSpeedGustMPH,Humidity,HourlyPrecipIn,Conditions,Clouds,dailyrainin,SoftwareType,DateUTC
2013-04-20 00:26:00,34.4,23.1,30.13,NNE,16,1.0,2.0,63,0.00,,CLR,0.00,VWS V14.01,2013-04-20 05:26:00,
2013-04-20 00:31:00,34.3,23.0,30.13,NW,312,2.0,2.0,63,0.00,,CLR,0.00,VWS V14.01,2013-04-20 05:31:00,
2013-04-20 00:43:00,34.2,23.3,30.14,NW,326,1.0,3.0,64,0.00,,CLR,0.00,VWS V14.01,2013-04-20 05:43:00,
2013-04-20 00:48:00,34.1,23.2,30.14,NNE,18,3.0,4.0,64,0.00,,CLR,0.00,VWS V14.01,2013-04-20 05:48:00,
2013-04-20 00:53:00,34.1,23.2,30.14,NNE,18,1.0,2.0,64,0.00,,CLR,0.00,VWS V14.01,2013-04-20 05:53:00,
2013-04-20 00:58:00,33.9,23.0,30.14,NNW,345,3.0,3.0,64,0.00,,CLR,0.00,VWS V14.01,2013-04-20 05:58:00,
2013-04-20 01:03:00,33.9,23.0,30.14,NNW,345,2.0,3.0,64,0.00,,CLR,0.00,VWS V14.01,2013-04-20 06:03:00,
2013-04-20 01:08:00,33.5,23.0,30.14,North,4,2.0,3.0,65,0.00,,CLR,0.00,VWS V14.01,2013-04-20 06:08:00,
2013-04-20 01:13:00,33.4,22.9,30.14,NNW,340,4.0,4.0,65,0.00,,CLR,0.00,VWS V14.01,2013-04-20 06:13:00,
2013-04-20 01:18:00,33.5,23.0,30.14,NNW,335,2.0,3.0,65,0.00,,CLR,0.00,VWS V14.01,2013-04-20 06:18:00,
2013-04-20 01:23:00,33.5,22.6,30.14,NNW,334,1.0,3.0,64,0.00,,CLR,0.00,VWS V14.01,2013-04-20 06:23:00,
2013-04-20 01:28:00,33.5,22.6,30.14,NNW,333,0.0,2.0,64,0.00,,CLR,0.00,VWS V14.01,2013-04-20 06:28:00,
2013-04-20 01:33:00,33.3,22.8,30.14,NNW,333,1.0,3.0,65,0.00,,CLR,0.00,VWS V14.01,2013-04-20 06:33:00,
2013-04-20 01:38:00,33.0,22.5,30.14,NNE,13,0.0,3.0,65,0.00,,CLR,0.00,VWS V14.01,2013-04-20 06:38:00,
2013-04-20 01:43:00,32.8,22.7,30.14,NNE,13,3.0,3.0,66,0.00,,CLR,0.00,VWS V14.01,2013-04-20 06:43:00,
2013-04-20 01:48:00,32.8,22.7,30.15,North,10,2.0,3.0,66,0.00,,CLR,0.00,VWS V14.01,2013-04-20 06:48:00,
2013-04-20 01:54:00,32.8,22.7,30.14,North,10,4.0,4.0,66,0.00,,CLR,0.00,VWS V14.01,2013-04-20 06:54:00,
2013-04-20 01:59:00,32.6,22.5,30.14,North,10,1.0,2.0,66,0.00,,CLR,0.00,VWS V14.01,2013-04-20 06:59:00,
2013-04-20 02:04:00,32.5,22.8,30.15,North,10,1.0,2.0,67,0.00,,CLR,0.00,VWS V14.01,2013-04-20 07:04:00,
2013-04-20 02:09:00,32.3,22.6,30.14,North,10,1.0,1.0,67,0.00,,CLR,0.00,VWS V14.01,2013-04-20 07:09:00,
2013-04-20 02:14:00,32.2,22.5,30.15,North,10,0.0,1.0,67,0.00,,CLR,0.00,VWS V14.01,2013-04-20 07:14:00,
2013-04-20 02:19:00,32.0,22.6,30.15,North,10,0.0,0.0,68,0.00,,CLR,0.00,VWS V14.01,2013-04-20 07:19:00,
2013-04-20 02:24:00,31.8,22.5,30.15,North,10,0.0,1.0,68,0.00,,CLR,0.00,VWS V14.01,2013-04-20 07:24:00,
2013-04-20 02:29:00,31.5,22.5,30.15,North,10,0.0,1.0,69,0.00,,CLR,0.00,VWS V14.01,2013-04-20 07:29:00,
2013-04-20 02:34:00,31.3,22.3,30.15,North,10,0.0,0.0,69,0.00,,CLR,0.00,VWS V14.01,2013-04-20 07:34:00,
2013-04-20 02:39:00,31.1,22.5,30.15,North,10,0.0,0.0,70,0.00,,CLR,0.00,VWS V14.01,2013-04-20 07:39:00,
2013-04-20 02:44:00,30.8,22.5,30.15,North,10,0.0,0.0,71,0.00,,CLR,0.00,VWS V14.01,2013-04-20 07:44:00,
2013-04-20 02:49:00,30.6,22.3,30.15,North,10,0.0,0.0,71,0.00,,CLR,0.00,VWS V14.01,2013-04-20 07:49:00,
2013-04-20 02:55:00,30.5,22.6,30.15,North,10,2.0,2.0,72,0.00,,CLR,0.00,VWS V14.01,2013-04-20 07:55:00,
2013-04-20 03:00:00,30.4,22.5,30.16,North,10,0.0,0.0,72,0.00,,CLR,0.00,VWS V14.01,2013-04-20 08:00:00,
2013-04-20 03:05:00,30.5,22.6,30.15,North,10,0.0,0.0,72,0.00,,SCT250,0.00,VWS V14.01,2013-04-20 08:05:00,
2013-04-20 03:10:00,30.6,22.7,30.15,North,10,0.0,0.0,72,0.00,,SCT250,0.00,VWS V14.01,2013-04-20 08:10:00,
2013-04-20 03:15:00,30.7,22.8,30.15,North,10,3.0,3.0,72,0.00,,SCT250,0.00,VWS V14.01,2013-04-20 08:15:00,
2013-04-20 03:20:00,30.8,22.5,30.15,North,10,0.0,1.0,71,0.00,,SCT250,0.00,VWS V14.01,2013-04-20 08:20:00,
2013-04-20 03:25:00,30.7,22.8,30.15,North,10,0.0,2.0,72,0.00,,SCT250,0.00,VWS V14.01,2013-04-20 08:25:00,
2013-04-20 03:30:00,30.7,22.8,30.16,North,10,0.0,1.0,72,0.00,,SCT250,0.00,VWS V14.01,2013-04-20 08:30:00,
2013-04-20 03:36:00,30.6,22.7,30.16,North,10,0.0,1.0,72,0.00,,SCT250,0.00,VWS V14.01,2013-04-20 08:36:00,
2013-04-20 03:41:00,30.7,22.8,30.16,North,10,0.0,0.0,72,0.00,,SCT250,0.00,VWS V14.01,2013-04-20 08:41:00,
2013-04-20 03:46:00,30.6,22.7,30.16,North,10,0.0,0.0,72,0.00,,SCT250,0.00,VWS V14.01,2013-04-20 08:46:00,
2013-04-20 03:51:00,30.5,22.6,30.16,North,10,0.0,0.0,72,0.00,,SCT250,0.00,VWS V14.01,2013-04-20 08:51:00,
2013-04-20 03:56:00,30.5,22.6,30.16,North,10,0.0,0.0,72,0.00,,SCT250,0.00,VWS V14.01,2013-04-20 08:56:00,
2013-04-20 04:01:00,30.4,22.5,30.17,North,10,0.0,0.0,72,0.00,,SCT250,0.00,VWS V14.01,2013-04-20 09:01:00,
2013-04-20 04:06:00,30.3,22.4,30.17,North,10,0.0,0.0,72,0.00,,SCT250,0.00,VWS V14.01,2013-04-20 09:06:00,
2013-04-20 04:14:00,30.2,22.3,30.17,North,10,1.0,2.0,72,0.00,,SCT250,0.00,VWS V14.01,2013-04-20 09:14:00,
2013-04-20 04:19:00,30.0,22.4,30.17,North,10,0.0,0.0,73,0.00,,SCT250,0.00,VWS V14.01,2013-04-20 09:19:00,
2013-04-20 04:24:00,29.8,22.2,30.18,NNW,346,3.0,3.0,73,0.00,,SCT250,0.00,VWS V14.01,2013-04-20 09:24:00,
2013-04-20 04:29:00,29.8,22.5,30.18,NW,317,0.0,2.0,74,0.00,,SCT250,0.00,VWS V14.01,2013-04-20 09:29:00,
2013-04-20 04:34:00,29.5,22.2,30.18,NW,317,0.0,0.0,74,0.00,,SCT250,0.00,VWS V14.01,2013-04-20 09:34:00,
2013-04-20 04:39:00,29.3,22.4,30.18,NW,317,2.0,2.0,75,0.00,,SCT250,0.00,VWS V14.01,2013-04-20 09:39:00,
2013-04-20 04:44:00,29.2,22.3,30.18,NW,317,0.0,1.0,75,0.00,,SCT250,0.00,VWS V14.01,2013-04-20 09:44:00,
2013-04-20 04:57:00,28.8,22.2,30.18,NW,317,0.0,1.0,76,0.00,,SCT250,0.00,VWS V14.01,2013-04-20 09:57:00,
2013-04-20 05:02:00,28.7,22.1,30.18,NW,317,1.0,2.0,76,0.00,,BKN250,0.00,VWS V14.01,2013-04-20 10:02:00,
2013-04-20 05:07:00,28.9,22.3,30.18,NW,317,2.0,2.0,76,0.00,,BKN250,0.00,VWS V14.01,2013-04-20 10:07:00,
2013-04-20 05:13:00,29.2,22.3,30.19,NW,317,0.0,0.0,75,0.00,,BKN250,0.00,VWS V14.01,2013-04-20 10:13:00,
2013-04-20 05:18:00,29.4,22.5,30.18,NW,317,2.0,3.0,75,0.00,,BKN250,0.00,VWS V14.01,2013-04-20 10:18:00,
2013-04-20 05:23:00,29.3,22.4,30.18,NW,318,0.0,2.0,75,0.00,,BKN250,0.00,VWS V14.01,2013-04-20 10:23:00,
2013-04-20 05:29:00,29.3,22.4,30.18,NW,318,0.0,1.0,75,0.00,,BKN250,0.00,VWS V14.01,2013-04-20 10:29:00,
2013-04-20 05:34:00,29.3,22.4,30.19,NW,318,0.0,1.0,75,0.00,,BKN250,0.00,VWS V14.01,2013-04-20 10:34:00,
2013-04-20 05:39:00,29.2,22.3,30.19,NW,318,0.0,0.0,75,0.00,,BKN250,0.00,VWS V14.01,2013-04-20 10:39:00,
2013-04-20 05:45:00,29.2,22.3,30.19,NW,318,1.0,1.0,75,0.00,,BKN250,0.00,VWS V14.01,2013-04-20 10:45:00,
2013-04-20 05:50:00,29.2,22.3,30.19,NW,318,1.0,1.0,75,0.00,,BKN250,0.00,VWS V14.01,2013-04-20 10:50:00,
2013-04-20 05:55:00,29.1,22.2,30.19,NW,318,1.0,1.0,75,0.00,,BKN250,0.00,VWS V14.01,2013-04-20 10:55:00,
2013-04-20 06:00:00,29.2,22.3,30.19,NW,318,0.0,1.0,75,0.00,,BKN250,0.00,VWS V14.01,2013-04-20 11:00:00,
2013-04-20 06:05:00,29.1,22.2,30.19,NW,318,1.0,1.0,75,0.00,,BKN250,0.00,VWS V14.01,2013-04-20 11:05:00,
2013-04-20 06:10:00,29.0,22.1,30.19,NW,318,1.0,2.0,75,0.00,,BKN250,0.00,VWS V14.01,2013-04-20 11:10:00,
2013-04-20 06:15:00,28.8,22.2,30.19,NNE,14,3.0,3.0,76,0.00,,BKN250,0.00,VWS V14.01,2013-04-20 11:15:00,
2013-04-20 06:20:00,28.5,21.9,30.19,NNE,15,4.0,5.0,76,0.00,,BKN250,0.00,VWS V14.01,2013-04-20 11:20:00,
2013-04-20 06:25:00,28.4,21.8,30.19,NNE,15,2.0,4.0,76,0.00,,BKN250,0.00,VWS V14.01,2013-04-20 11:25:00,
2013-04-20 06:33:00,28.1,21.8,30.20,NNE,15,3.0,3.0,77,0.00,,BKN250,0.00,VWS V14.01,2013-04-20 11:33:00,
2013-04-20 06:38:00,27.9,21.6,30.20,NNE,15,2.0,4.0,77,0.00,,BKN250,0.00,VWS V14.01,2013-04-20 11:38:00,
2013-04-20 06:43:00,27.6,21.6,30.20,NNE,15,2.0,3.0,78,0.00,,BKN250,0.00,VWS V14.01,2013-04-20 11:43:00,
2013-04-20 06:48:00,27.6,21.6,30.21,NNE,15,1.0,1.0,78,0.00,,BKN250,0.00,VWS V14.01,2013-04-20 11:48:00,
2013-04-20 06:53:00,27.6,22.0,30.21,NNE,15,3.0,3.0,79,0.00,,BKN250,0.00,VWS V14.01,2013-04-20 11:53:00,
2013-04-20 06:58:00,27.9,21.9,30.21,NNE,15,3.0,5.0,78,0.00,,BKN250,0.00,VWS V14.01,2013-04-20 11:58:00,
2013-04-20 07:41:00,31.3,24.6,30.24,NNE,14,0.0,1.0,76,0.00,,SCT250,0.00,VWS V14.01,2013-04-20 12:41:00,
2013-04-20 07:46:00,31.8,24.8,30.24,NNE,14,1.0,3.0,75,0.00,,SCT250,0.00,VWS V14.01,2013-04-20 12:46:00,
2013-04-20 07:51:00,32.0,24.3,30.24,ENE,67,2.0,5.0,73,0.00,,SCT250,0.00,VWS V14.01,2013-04-20 12:51:00,
2013-04-20 07:56:00,32.2,24.5,30.24,ENE,65,3.0,3.0,73,0.00,,SCT250,0.00,VWS V14.01,2013-04-20 12:56:00,
2013-04-20 08:01:00,32.5,24.5,30.25,ENE,67,4.0,5.0,72,0.00,,SCT250,0.00,VWS V14.01,2013-04-20 13:01:00,
2013-04-20 08:06:00,32.5,24.5,30.24,ENE,68,3.0,5.0,72,0.00,,SCT250,0.00,VWS V14.01,2013-04-20 13:06:00,
2013-04-20 08:11:00,32.3,24.3,30.25,ENE,69,3.0,4.0,72,0.00,,SCT250,0.00,VWS V14.01,2013-04-20 13:11:00,
2013-04-20 08:16:00,31.9,23.9,30.25,ENE,65,1.0,3.0,72,0.00,,SCT250,0.00,VWS V14.01,2013-04-20 13:16:00,
2013-04-20 08:21:00,32.3,24.3,30.25,ENE,78,7.0,8.0,72,0.00,,SCT250,0.00,VWS V14.01,2013-04-20 13:21:00,
2013-04-20 08:26:00,32.0,24.0,30.25,East,88,0.0,3.0,72,0.00,,SCT250,0.00,VWS V14.01,2013-04-20 13:26:00,
2013-04-20 08:31:00,32.5,24.5,30.25,ESE,108,4.0,4.0,72,0.00,,SCT250,0.00,VWS V14.01,2013-04-20 13:31:00,
2013-04-20 08:36:00,32.5,24.5,30.25,ESE,108,2.0,5.0,72,0.00,,SCT250,0.00,VWS V14.01,2013-04-20 13:36:00,
2013-04-20 08:41:00,32.5,24.8,30.25,ENE,68,1.0,5.0,73,0.00,,SCT250,0.00,VWS V14.01,2013-04-20 13:41:00,
2013-04-20 08:46:00,33.0,25.0,30.25,ENE,58,2.0,5.0,72,0.00,,SCT250,0.00,VWS V14.01,2013-04-20 13:46:00,
2013-04-20 08:51:00,33.0,25.0,30.25,ENE,65,4.0,4.0,72,0.00,,SCT250,0.00,VWS V14.01,2013-04-20 13:51:00,
2013-04-20 08:56:00,32.5,24.8,30.25,East,90,3.0,7.0,73,0.00,,SCT250,0.00,VWS V14.01,2013-04-20 13:56:00,
2013-04-20 09:01:00,32.2,25.2,30.26,NE,41,4.0,6.0,75,0.00,,BKN110,0.00,VWS V14.01,2013-04-20 14:01:00,
2013-04-20 09:07:00,32.3,25.6,30.26,East,93,1.0,2.0,76,0.00,,BKN110,0.00,VWS V14.01,2013-04-20 14:07:00,
2013-04-20 09:12:00,32.7,25.7,30.26,NE,48,3.0,5.0,75,0.00,,BKN110,0.00,VWS V14.01,2013-04-20 14:12:00,
2013-04-20 09:17:00,33.3,26.2,30.26,East,85,5.0,9.0,75,0.00,,BKN110,0.00,VWS V14.01,2013-04-20 14:17:00,
2013-04-20 09:22:00,33.5,24.1,30.26,ESE,108,4.0,7.0,68,0.00,,BKN110,0.00,VWS V14.01,2013-04-20 14:22:00,
2013-04-20 09:27:00,33.6,24.5,30.26,ENE,63,3.0,5.0,69,0.00,,BKN110,0.00,VWS V14.01,2013-04-20 14:27:00,
2013-04-20 09:32:00,34.2,24.4,30.26,ENE,77,5.0,7.0,67,0.00,,BKN110,0.00,VWS V14.01,2013-04-20 14:32:00,
2013-04-20 09:37:00,34.3,23.8,30.26,ESE,110,5.0,5.0,65,0.00,,BKN110,0.00,VWS V14.01,2013-04-20 14:37:00,
2013-04-20 09:42:00,34.3,23.8,30.27,East,96,6.0,6.0,65,0.00,,BKN110,0.00,VWS V14.01,2013-04-20 14:42:00,
2013-04-20 09:47:00,34.3,23.8,30.27,ESE,110,3.0,5.0,65,0.00,,BKN110,0.00,VWS V14.01,2013-04-20 14:47:00,
2013-04-20 09:52:00,34.6,24.4,30.27,ESE,122,4.0,8.0,66,0.00,,BKN110,0.00,VWS V14.01,2013-04-20 14:52:00,
2013-04-20 09:57:00,34.9,24.3,30.27,ENE,66,2.0,4.0,65,0.00,,BKN110,0.00,VWS V14.01,2013-04-20 14:57:00,
2013-04-20 10:02:00,35.2,24.6,30.27,SE,124,5.0,7.0,65,0.00,,BKN100,0.00,VWS V14.01,2013-04-20 15:02:00,
2013-04-20 10:07:00,35.5,24.2,30.28,ESE,104,3.0,6.0,63,0.00,,BKN100,0.00,VWS V14.01,2013-04-20 15:07:00,
2013-04-20 10:12:00,35.5,23.8,30.28,ENE,70,3.0,7.0,62,0.00,,BKN100,0.00,VWS V14.01,2013-04-20 15:12:00,
2013-04-20 10:17:00,35.5,23.8,30.28,East,81,1.0,3.0,62,0.00,,BKN100,0.00,VWS V14.01,2013-04-20 15:17:00,
2013-04-20 10:22:00,35.8,24.1,30.28,ENE,74,3.0,3.0,62,0.00,,BKN100,0.00,VWS V14.01,2013-04-20 15:22:00,
2013-04-20 10:27:00,36.1,24.4,30.29,ESE,106,4.0,5.0,62,0.00,,BKN100,0.00,VWS V14.01,2013-04-20 15:27:00,
2013-04-20 10:32:00,36.2,24.1,30.29,ESE,107,2.0,4.0,61,0.00,,BKN100,0.00,VWS V14.01,2013-04-20 15:32:00,
2013-04-20 10:37:00,36.1,24.0,30.28,East,84,5.0,6.0,61,0.00,,BKN100,0.00,VWS V14.01,2013-04-20 15:37:00,
2013-04-20 10:42:00,36.1,24.0,30.28,East,85,5.0,8.0,61,0.00,,BKN100,0.00,VWS V14.01,2013-04-20 15:42:00,
2013-04-20 10:47:00,36.2,24.5,30.28,ENE,63,4.0,4.0,62,0.00,,BKN100,0.00,VWS V14.01,2013-04-20 15:47:00,
2013-04-20 10:52:00,36.3,23.8,30.28,ESE,120,1.0,6.0,60,0.00,,BKN100,0.00,VWS V14.01,2013-04-20 15:52:00,
2013-04-20 10:57:00,36.3,24.1,30.28,ENE,67,5.0,5.0,61,0.00,,BKN100,0.00,VWS V14.01,2013-04-20 15:57:00,
2013-04-20 11:02:00,36.2,22.5,30.28,East,92,0.0,6.0,57,0.00,,OVC075,0.00,VWS V14.01,2013-04-20 16:02:00,
2013-04-20 11:07:00,36.3,23.0,30.28,ENE,68,1.0,4.0,58,0.00,,OVC075,0.00,VWS V14.01,2013-04-20 16:07:00,
2013-04-20 11:12:00,36.6,23.6,30.28,NE,43,3.0,9.0,59,0.00,,OVC075,0.00,VWS V14.01,2013-04-20 16:12:00,
2013-04-20 11:17:00,36.8,23.8,30.28,ENE,77,5.0,6.0,59,0.00,,OVC075,0.00,VWS V14.01,2013-04-20 16:17:00,
2013-04-20 11:22:00,36.9,24.3,30.28,East,90,3.0,6.0,60,0.00,,OVC075,0.00,VWS V14.01,2013-04-20 16:22:00,
2013-04-20 11:27:00,37.3,23.9,30.27,SE,133,3.0,10.0,58,0.00,,OVC075,0.00,VWS V14.01,2013-04-20 16:27:00,
2013-04-20 11:32:00,37.5,24.1,30.28,SE,131,7.0,7.0,58,0.00,,OVC075,0.00,VWS V14.01,2013-04-20 16:32:00,
2013-04-20 11:37:00,37.8,23.1,30.28,ESE,110,7.0,8.0,55,0.00,,OVC075,0.00,VWS V14.01,2013-04-20 16:37:00,
2013-04-20 11:42:00,38.0,22.0,30.28,ESE,117,5.0,8.0,52,0.00,,OVC075,0.00,VWS V14.01,2013-04-20 16:42:00,
2013-04-20 11:47:00,38.3,23.1,30.28,ESE,102,7.0,7.0,54,0.00,,OVC075,0.00,VWS V14.01,2013-04-20 16:47:00,
2013-04-20 11:53:00,38.6,22.5,30.27,ENE,70,7.0,11.0,52,0.00,,OVC075,0.00,VWS V14.01,2013-04-20 16:53:00,
2013-04-20 11:58:00,38.8,23.1,30.27,ESE,110,4.0,5.0,53,0.00,,OVC075,0.00,VWS V14.01,2013-04-20 16:58:00,
2013-04-20 12:03:00,39.1,23.0,30.27,East,96,8.0,9.0,52,0.00,,OVC070,0.00,VWS V14.01,2013-04-20 17:03:00,
2013-04-20 12:08:00,39.1,23.0,30.27,ENE,68,3.0,7.0,52,0.00,,OVC070,0.00,VWS V14.01,2013-04-20 17:08:00,
2013-04-20 12:13:00,39.6,22.0,30.27,ESE,112,7.0,9.0,49,0.00,,OVC070,0.00,VWS V14.01,2013-04-20 17:13:00,
2013-04-20 12:18:00,39.5,21.9,30.27,ENE,62,8.0,11.0,49,0.00,,OVC070,0.00,VWS V14.01,2013-04-20 17:18:00,
2013-04-20 12:23:00,39.8,23.2,30.27,NE,51,6.0,6.0,51,0.00,,OVC070,0.00,VWS V14.01,2013-04-20 17:23:00,
2013-04-20 12:28:00,40.2,22.6,30.27,ESE,110,2.0,8.0,49,0.00,,OVC070,0.00,VWS V14.01,2013-04-20 17:28:00,
2013-04-20 12:33:00,40.5,23.3,30.26,East,84,7.0,7.0,50,0.00,,OVC070,0.00,VWS V14.01,2013-04-20 17:33:00,
2013-04-20 12:38:00,41.0,22.8,30.26,East,94,6.0,9.0,48,0.00,,OVC070,0.00,VWS V14.01,2013-04-20 17:38:00,
2013-04-20 12:43:00,40.9,23.2,30.26,ESE,114,5.0,5.0,49,0.00,,OVC070,0.00,VWS V14.01,2013-04-20 17:43:00,
2013-04-20 12:48:00,41.4,23.7,30.25,SE,129,6.0,8.0,49,0.00,,OVC070,0.00,VWS V14.01,2013-04-20 17:48:00,
2013-04-20 12:53:00,41.7,24.0,30.25,East,95,8.0,9.0,49,0.00,,OVC070,0.00,VWS V14.01,2013-04-20 17:53:00,
2013-04-20 12:58:00,41.8,24.1,30.25,SSE,149,4.0,8.0,49,0.00,,OVC070,0.00,VWS V14.01,2013-04-20 17:58:00,
2013-04-20 13:03:00,41.7,23.0,30.24,East,96,9.0,11.0,47,0.00,,OVC220,0.00,VWS V14.01,2013-04-20 18:03:00,
2013-04-20 13:08:00,41.5,22.8,30.25,East,87,7.0,9.0,47,0.00,,OVC220,0.00,VWS V14.01,2013-04-20 18:08:00,
2013-04-20 13:13:00,41.6,23.4,30.25,East,89,7.0,10.0,48,0.00,,OVC220,0.00,VWS V14.01,2013-04-20 18:13:00,
2013-04-20 13:18:00,41.8,23.1,30.25,SE,126,5.0,10.0,47,0.00,,OVC220,0.00,VWS V14.01,2013-04-20 18:18:00,
2013-04-20 13:23:00,41.8,23.1,30.25,ESE,103,7.0,10.0,47,0.00,,OVC220,0.00,VWS V14.01,2013-04-20 18:23:00,
2013-04-20 13:28:00,41.6,23.4,30.24,ESE,108,5.0,7.0,48,0.00,,OVC220,0.00,VWS V14.01,2013-04-20 18:28:00,
2013-04-20 13:33:00,41.9,24.6,30.24,ESE,103,7.0,12.0,50,0.00,,OVC220,0.00,VWS V14.01,2013-04-20 18:33:00,
2013-04-20 13:38:00,42.3,23.5,30.23,ESE,113,8.0,8.0,47,0.00,,OVC220,0.00,VWS V14.01,2013-04-20 18:38:00,
2013-04-20 13:43:00,42.5,24.2,30.23,ESE,102,5.0,11.0,48,0.00,,OVC220,0.00,VWS V14.01,2013-04-20 18:43:00,
2013-04-20 13:48:00,42.6,23.3,30.23,SE,127,3.0,9.0,46,0.00,,OVC220,0.00,VWS V14.01,2013-04-20 18:48:00,
2013-04-20 13:53:00,42.7,24.4,30.23,East,83,2.0,9.0,48,0.00,,OVC220,0.00,VWS V14.01,2013-04-20 18:53:00,
2013-04-20 13:58:00,43.2,25.4,30.23,SSE,158,3.0,8.0,49,0.00,,OVC220,0.00,VWS V14.01,2013-04-20 18:58:00,
2013-04-20 14:03:00,43.4,25.0,30.23,SSE,152,10.0,13.0,48,0.00,,OVC075,0.00,VWS V14.01,2013-04-20 19:03:00,
2013-04-20 14:08:00,43.2,24.4,30.23,East,96,5.0,11.0,47,0.00,,OVC075,0.00,VWS V14.01,2013-04-20 19:08:00,
2013-04-20 14:13:00,43.1,24.3,30.23,ESE,102,3.0,9.0,47,0.00,,OVC075,0.00,VWS V14.01,2013-04-20 19:13:00,
2013-04-20 14:18:00,43.3,24.4,30.22,East,95,5.0,8.0,47,0.00,,OVC075,0.00,VWS V14.01,2013-04-20 19:18:00,
2013-04-20 14:23:00,43.6,25.2,30.22,ESE,109,7.0,9.0,48,0.00,,OVC075,0.00,VWS V14.01,2013-04-20 19:23:00,
2013-04-20 14:28:00,43.8,24.9,30.22,ESE,122,5.0,11.0,47,0.00,,OVC075,0.00,VWS V14.01,2013-04-20 19:28:00,
2013-04-20 14:33:00,44.2,24.8,30.22,East,89,6.0,10.0,46,0.00,,OVC075,0.00,VWS V14.01,2013-04-20 19:33:00,
2013-04-20 14:38:00,44.2,25.3,30.22,ESE,117,7.0,10.0,47,0.00,,OVC075,0.00,VWS V14.01,2013-04-20 19:38:00,
2013-04-20 14:43:00,44.2,24.2,30.22,South,170,4.0,9.0,45,0.00,,OVC075,0.00,VWS V14.01,2013-04-20 19:43:00,
2013-04-20 14:48:00,44.4,22.8,30.22,ESE,122,4.0,13.0,42,0.00,,OVC075,0.00,VWS V14.01,2013-04-20 19:48:00,
2013-04-20 14:53:00,44.7,25.2,30.22,SE,139,4.0,11.0,46,0.00,,OVC075,0.00,VWS V14.01,2013-04-20 19:53:00,
2013-04-20 14:58:00,44.6,24.6,30.21,East,99,9.0,12.0,45,0.00,,OVC075,0.00,VWS V14.01,2013-04-20 19:58:00,
2013-04-20 15:03:00,44.7,24.7,30.22,East,85,8.0,11.0,45,0.00,,OVC140,0.00,VWS V14.01,2013-04-20 20:03:00,
2013-04-20 15:08:00,44.8,24.8,30.21,ESE,104,7.0,9.0,45,0.00,,OVC140,0.00,VWS V14.01,2013-04-20 20:08:00,
2013-04-20 15:13:00,45.0,26.5,30.20,ENE,74,8.0,14.0,48,0.00,,OVC140,0.00,VWS V14.01,2013-04-20 20:13:00,
2013-04-20 15:18:00,45.1,25.6,30.20,East,98,5.0,9.0,46,0.00,,OVC140,0.00,VWS V14.01,2013-04-20 20:18:00,
2013-04-20 15:23:00,45.2,26.2,30.20,ESE,109,7.0,11.0,47,0.00,,OVC140,0.00,VWS V14.01,2013-04-20 20:23:00,
2013-04-20 15:29:00,45.5,26.5,30.19,ESE,107,8.0,10.0,47,0.00,,OVC140,0.00,VWS V14.01,2013-04-20 20:29:00,
2013-04-20 15:34:00,45.9,26.8,30.19,ESE,119,5.0,11.0,47,0.00,,OVC140,0.00,VWS V14.01,2013-04-20 20:34:00,
2013-04-20 15:39:00,46.2,27.6,30.19,East,100,10.0,21.0,48,0.00,,OVC140,0.00,VWS V14.01,2013-04-20 20:39:00,
2013-04-20 15:44:00,46.4,28.3,30.19,ESE,105,11.0,14.0,49,0.00,,OVC140,0.00,VWS V14.01,2013-04-20 20:44:00,
2013-04-20 15:49:00,46.2,26.0,30.19,ESE,116,8.0,10.0,45,0.00,,OVC140,0.00,VWS V14.01,2013-04-20 20:49:00,
2013-04-20 15:58:00,46.6,26.9,30.19,ESE,108,9.0,9.0,46,0.00,,OVC140,0.00,VWS V14.01,2013-04-20 20:58:00,
2013-04-20 16:03:00,46.8,27.1,30.19,ESE,103,8.0,10.0,46,0.00,,OVC200,0.00,VWS V14.01,2013-04-20 21:03:00,
2013-04-20 16:08:00,47.0,27.3,30.18,SE,125,10.0,10.0,46,0.00,,OVC200,0.00,VWS V14.01,2013-04-20 21:08:00,
2013-04-20 16:13:00,47.1,26.9,30.18,ESE,122,3.0,8.0,45,0.00,,OVC200,0.00,VWS V14.01,2013-04-20 21:13:00,
2013-04-20 16:19:00,47.3,27.6,30.18,ESE,122,3.0,9.0,46,0.00,,OVC200,0.00,VWS V14.01,2013-04-20 21:19:00,
2013-04-20 16:24:00,47.1,26.9,30.18,East,95,8.0,13.0,45,0.00,,OVC200,0.00,VWS V14.01,2013-04-20 21:24:00,
2013-04-20 16:29:00,47.0,26.8,30.18,ESE,110,7.0,11.0,45,0.00,,OVC200,0.00,VWS V14.01,2013-04-20 21:29:00,
2013-04-20 16:34:00,47.0,26.2,30.18,East,85,5.0,15.0,44,0.00,,OVC200,0.00,VWS V14.01,2013-04-20 21:34:00,
2013-04-20 16:39:00,47.3,27.6,30.18,ESE,116,4.0,14.0,46,0.00,,OVC200,0.00,VWS V14.01,2013-04-20 21:39:00,
2013-04-20 16:44:00,47.4,27.1,30.18,SE,134,8.0,11.0,45,0.00,,OVC200,0.00,VWS V14.01,2013-04-20 21:44:00,
2013-04-20 16:49:00,47.5,27.2,30.18,East,90,2.0,10.0,45,0.00,,OVC200,0.00,VWS V14.01,2013-04-20 21:49:00,
2013-04-20 16:54:00,47.6,27.3,30.17,ESE,121,7.0,8.0,45,0.00,,OVC200,0.00,VWS V14.01,2013-04-20 21:54:00,
2013-04-20 16:59:00,47.7,27.4,30.17,ESE,104,8.0,8.0,45,0.00,,OVC200,0.00,VWS V14.01,2013-04-20 21:59:00,
2013-04-20 17:04:00,47.8,29.1,30.17,SE,138,5.0,11.0,48,0.00,,OVC200,0.00,VWS V14.01,2013-04-20 22:04:00,
2013-04-20 17:09:00,47.8,26.4,30.17,East,97,6.0,13.0,43,0.00,,OVC200,0.00,VWS V14.01,2013-04-20 22:09:00,
2013-04-20 17:14:00,47.8,26.4,30.17,NE,53,7.0,13.0,43,0.00,,OVC200,0.00,VWS V14.01,2013-04-20 22:14:00,
2013-04-20 17:19:00,47.7,27.4,30.17,SE,125,8.0,11.0,45,0.00,,OVC200,0.00,VWS V14.01,2013-04-20 22:19:00,
2013-04-20 17:24:00,47.7,28.0,30.17,ESE,105,3.0,9.0,46,0.00,,OVC200,0.00,VWS V14.01,2013-04-20 22:24:00,
2013-04-20 17:29:00,47.9,26.5,30.17,SE,138,6.0,9.0,43,0.00,,OVC200,0.00,VWS V14.01,2013-04-20 22:29:00,
2013-04-20 17:34:00,47.8,27.5,30.17,SSE,160,8.0,12.0,45,0.00,,OVC200,0.00,VWS V14.01,2013-04-20 22:34:00,
2013-04-20 17:39:00,48.0,27.7,30.17,East,87,10.0,10.0,45,0.00,,OVC200,0.00,VWS V14.01,2013-04-20 22:39:00,
2013-04-20 17:44:00,48.1,28.3,30.17,SE,129,8.0,10.0,46,0.00,,OVC200,0.00,VWS V14.01,2013-04-20 22:44:00,
2013-04-20 17:49:00,48.1,27.8,30.17,ESE,122,5.0,8.0,45,0.00,,OVC200,0.00,VWS V14.01,2013-04-20 22:49:00,
2013-04-20 17:54:00,48.2,28.4,30.17,East,89,6.0,9.0,46,0.00,,OVC200,0.00,VWS V14.01,2013-04-20 22:54:00,
2013-04-20 17:59:00,48.1,27.8,30.17,ENE,73,4.0,8.0,45,0.00,,OVC200,0.00,VWS V14.01,2013-04-20 22:59:00,
2013-04-20 18:04:00,48.2,27.9,30.17,East,91,8.0,9.0,45,0.00,,OVC200,0.00,VWS V14.01,2013-04-20 23:04:00,
2013-04-20 18:09:00,48.1,27.8,30.17,East,89,3.0,8.0,45,0.00,,OVC200,0.00,VWS V14.01,2013-04-20 23:09:00,
2013-04-20 18:14:00,48.3,27.4,30.17,ESE,117,10.0,14.0,44,0.00,,OVC200,0.00,VWS V14.01,2013-04-20 23:14:00,
2013-04-20 18:19:00,48.5,28.1,30.17,NE,54,4.0,11.0,45,0.00,,OVC200,0.00,VWS V14.01,2013-04-20 23:19:00,
2013-04-20 18:24:00,48.7,28.9,30.17,East,92,3.0,11.0,46,0.00,,OVC200,0.00,VWS V14.01,2013-04-20 23:24:00,
2013-04-20 18:29:00,48.9,28.5,30.17,ESE,110,9.0,9.0,45,0.00,,OVC200,0.00,VWS V14.01,2013-04-20 23:29:00,
2013-04-20 18:34:00,48.8,28.4,30.16,SE,131,7.0,9.0,45,0.00,,OVC200,0.00,VWS V14.01,2013-04-20 23:34:00,
2013-04-20 18:39:00,48.8,28.4,30.16,ESE,113,4.0,9.0,45,0.00,,OVC200,0.00,VWS V14.01,2013-04-20 23:39:00,
2013-04-20 18:44:00,48.7,29.4,30.16,ESE,113,3.0,8.0,47,0.00,,OVC200,0.00,VWS V14.01,2013-04-20 23:44:00,
2013-04-20 18:50:00,48.7,28.3,30.16,ESE,105,4.0,10.0,45,0.00,,OVC200,0.00,VWS V14.01,2013-04-20 23:50:00,
2013-04-20 18:55:00,48.6,28.8,30.16,ESE,104,4.0,8.0,46,0.00,,OVC200,0.00,VWS V14.01,2013-04-20 23:55:00,
2013-04-20 19:00:00,48.4,28.6,30.16,ESE,106,7.0,16.0,46,0.00,,OVC200,0.00,VWS V14.01,2013-04-21 00:00:00,
2013-04-20 19:05:00,48.2,28.4,30.16,ESE,121,5.0,9.0,46,0.00,,OVC200,0.00,VWS V14.01,2013-04-21 00:05:00,
2013-04-20 19:10:00,48.1,27.8,30.16,East,93,5.0,10.0,45,0.00,,OVC200,0.00,VWS V14.01,2013-04-21 00:10:00,
2013-04-20 19:15:00,48.0,28.2,30.16,SE,127,4.0,9.0,46,0.00,,OVC200,0.00,VWS V14.01,2013-04-21 00:15:00,
2013-04-20 19:20:00,47.9,28.7,30.16,SE,133,3.0,11.0,47,0.00,,OVC200,0.00,VWS V14.01,2013-04-21 00:20:00,
2013-04-20 19:25:00,47.8,29.1,30.15,East,95,5.0,9.0,48,0.00,,OVC200,0.00,VWS V14.01,2013-04-21 00:25:00,
2013-04-20 19:30:00,47.7,28.5,30.15,ENE,72,8.0,12.0,47,0.00,,OVC200,0.00,VWS V14.01,2013-04-21 00:30:00,
2013-04-20 19:35:00,47.6,29.4,30.15,ESE,105,9.0,9.0,49,0.00,,OVC200,0.00,VWS V14.01,2013-04-21 00:35:00,
2013-04-20 19:40:00,47.4,29.7,30.16,East,82,11.0,11.0,50,0.00,,OVC200,0.00,VWS V14.01,2013-04-21 00:40:00,
2013-04-20 19:45:00,47.2,29.5,30.16,SSE,149,2.0,8.0,50,0.00,,OVC200,0.00,VWS V14.01,2013-04-21 00:45:00,
2013-04-20 19:50:00,47.1,29.9,30.16,SE,124,5.0,7.0,51,0.00,,OVC200,0.00,VWS V14.01,2013-04-21 00:50:00,
2013-04-20 19:55:00,47.0,29.8,30.16,ESE,109,3.0,7.0,51,0.00,,OVC200,0.00,VWS V14.01,2013-04-21 00:55:00,
2013-04-20 20:00:00,46.8,29.6,30.17,SE,124,2.0,7.0,51,0.00,,OVC200,0.00,VWS V14.01,2013-04-21 01:00:00,
2013-04-20 20:05:00,46.6,29.5,30.17,East,93,3.0,6.0,51,0.00,,OVC200,0.00,VWS V14.01,2013-04-21 01:05:00,
2013-04-20 20:10:00,46.5,29.8,30.17,ESE,102,2.0,6.0,52,0.00,,OVC200,0.00,VWS V14.01,2013-04-21 01:10:00,
2013-04-20 20:15:00,46.5,29.8,30.17,ESE,109,3.0,5.0,52,0.00,,OVC200,0.00,VWS V14.01,2013-04-21 01:15:00,
2013-04-20 20:20:00,46.4,30.2,30.18,SE,124,4.0,4.0,53,0.00,,OVC200,0.00,VWS V14.01,2013-04-21 01:20:00,
2013-04-20 20:25:00,46.2,29.6,30.18,East,87,3.0,8.0,52,0.00,,OVC200,0.00,VWS V14.01,2013-04-21 01:25:00,
2013-04-20 20:30:00,46.2,29.6,30.17,ESE,111,8.0,8.0,52,0.00,,OVC200,0.00,VWS V14.01,2013-04-21 01:30:00,
2013-04-20 20:35:00,46.0,30.3,30.17,ESE,114,3.0,7.0,54,0.00,,OVC200,0.00,VWS V14.01,2013-04-21 01:35:00,
2013-04-20 20:40:00,45.8,30.6,30.17,ESE,109,4.0,6.0,55,0.00,,OVC200,0.00,VWS V14.01,2013-04-21 01:40:00,
2013-04-20 20:45:00,45.6,30.4,30.17,East,86,5.0,7.0,55,0.00,,OVC200,0.00,VWS V14.01,2013-04-21 01:45:00,
2013-04-20 20:50:00,45.4,31.1,30.18,SE,125,4.0,6.0,57,0.00,,OVC200,0.00,VWS V14.01,2013-04-21 01:50:00,
2013-04-20 20:55:00,45.3,31.8,30.19,SE,129,3.0,4.0,59,0.00,,OVC200,0.00,VWS V14.01,2013-04-21 01:55:00,
2013-04-20 21:00:00,45.3,31.4,30.19,SE,128,0.0,2.0,58,0.00,,OVC200,0.00,VWS V14.01,2013-04-21 02:00:00,
2013-04-20 21:05:00,45.0,30.7,30.19,East,92,3.0,6.0,57,0.00,,BKN200,0.00,VWS V14.01,2013-04-21 02:05:00,
2013-04-20 21:10:00,44.9,30.6,30.18,East,96,2.0,6.0,57,0.00,,BKN200,0.00,VWS V14.01,2013-04-21 02:10:00,
2013-04-20 21:15:00,44.8,30.5,30.19,ESE,110,4.0,5.0,57,0.00,,BKN200,0.00,VWS V14.01,2013-04-21 02:15:00,
2013-04-20 21:20:00,44.8,30.5,30.19,ESE,118,3.0,7.0,57,0.00,,BKN200,0.00,VWS V14.01,2013-04-21 02:20:00,
2013-04-20 21:25:00,44.8,30.9,30.19,ESE,112,3.0,5.0,58,0.00,,BKN200,0.00,VWS V14.01,2013-04-21 02:25:00,
2013-04-20 21:30:00,44.6,30.3,30.19,ENE,60,5.0,7.0,57,0.00,,BKN200,0.00,VWS V14.01,2013-04-21 02:30:00,
2013-04-20 21:35:00,44.6,30.3,30.18,East,99,6.0,9.0,57,0.00,,BKN200,0.00,VWS V14.01,2013-04-21 02:35:00,
2013-04-20 21:40:00,44.6,30.3,30.18,ESE,106,9.0,9.0,57,0.00,,BKN200,0.00,VWS V14.01,2013-04-21 02:40:00,
2013-04-20 21:45:00,44.7,30.0,30.18,ENE,74,8.0,12.0,56,0.00,,BKN200,0.00,VWS V14.01,2013-04-21 02:45:00,
2013-04-20 21:50:00,44.6,30.3,30.19,East,98,3.0,9.0,57,0.00,,BKN200,0.00,VWS V14.01,2013-04-21 02:50:00,
2013-04-20 21:55:00,44.5,30.7,30.19,ESE,119,3.0,5.0,58,0.00,,BKN200,0.00,VWS V14.01,2013-04-21 02:55:00,
2013-04-20 22:00:00,44.2,30.8,30.18,SE,144,3.0,7.0,59,0.00,,BKN200,0.00,VWS V14.01,2013-04-21 03:00:00,
2013-04-20 22:05:00,44.1,30.7,30.19,ESE,119,4.0,9.0,59,0.00,,BKN200,0.00,VWS V14.01,2013-04-21 03:05:00,
2013-04-20 22:11:00,44.0,30.6,30.18,ESE,114,7.0,9.0,59,0.00,,BKN200,0.00,VWS V14.01,2013-04-21 03:11:00,
2013-04-20 22:16:00,44.1,30.7,30.18,SE,127,6.0,8.0,59,0.00,,BKN200,0.00,VWS V14.01,2013-04-21 03:16:00,
2013-04-20 22:21:00,44.2,30.8,30.18,ESE,118,3.0,9.0,59,0.00,,BKN200,0.00,VWS V14.01,2013-04-21 03:21:00,
2013-04-20 22:26:00,44.2,30.8,30.18,ESE,102,4.0,8.0,59,0.00,,BKN200,0.00,VWS V14.01,2013-04-21 03:26:00,
2013-04-20 22:31:00,44.3,30.5,30.18,SSE,148,5.0,9.0,58,0.00,,BKN200,0.00,VWS V14.01,2013-04-21 03:31:00,
2013-04-20 22:36:00,44.4,30.6,30.19,SE,137,6.0,8.0,58,0.00,,BKN200,0.00,VWS V14.01,2013-04-21 03:36:00,
2013-04-20 22:41:00,44.4,30.6,30.18,ESE,120,5.0,9.0,58,0.00,,BKN200,0.00,VWS V14.01,2013-04-21 03:41:00,
2013-04-20 22:46:00,44.5,30.2,30.18,SE,127,5.0,9.0,57,0.00,,BKN200,0.00,VWS V14.01,2013-04-21 03:46:00,
2013-04-20 22:51:00,44.8,30.5,30.18,East,96,6.0,9.0,57,0.00,,BKN200,0.00,VWS V14.01,2013-04-21 03:51:00,
2013-04-20 22:56:00,44.9,30.6,30.17,East,90,10.0,11.0,57,0.00,,BKN200,0.00,VWS V14.01,2013-04-21 03:56:00,
2013-04-20 23:01:00,45.0,30.3,30.16,ESE,114,9.0,15.0,56,0.00,,BKN200,0.00,VWS V14.01,2013-04-21 04:01:00,
2013-04-20 23:06:00,44.9,30.6,30.17,ESE,105,3.0,9.0,57,0.00,,BKN200,0.00,VWS V14.01,2013-04-21 04:06:00,
2013-04-20 23:11:00,44.9,30.6,30.17,ESE,122,2.0,4.0,57,0.00,,BKN200,0.00,VWS V14.01,2013-04-21 04:11:00,
2013-04-20 23:16:00,44.9,30.6,30.18,SSE,151,2.0,3.0,57,0.00,,BKN200,0.00,VWS V14.01,2013-04-21 04:16:00,
2013-04-20 23:21:00,44.9,30.6,30.18,SSE,156,3.0,5.0,57,0.00,,BKN200,0.00,VWS V14.01,2013-04-21 04:21:00,
2013-04-20 23:27:00,44.9,31.0,30.18,SSE,156,2.0,6.0,58,0.00,,BKN200,0.00,VWS V14.01,2013-04-21 04:27:00,
2013-04-20 23:32:00,44.6,31.2,30.18,ESE,118,3.0,4.0,59,0.00,,BKN200,0.00,VWS V14.01,2013-04-21 04:32:00,
2013-04-20 23:37:00,44.5,31.1,30.18,South,179,2.0,3.0,59,0.00,,BKN200,0.00,VWS V14.01,2013-04-21 04:37:00,
2013-04-20 23:42:00,44.6,31.2,30.20,WNW,295,5.0,5.0,59,0.00,,BKN200,0.00,VWS V14.01,2013-04-21 04:42:00,
2013-04-20 23:47:00,44.7,30.9,30.20,East,83,2.0,3.0,58,0.00,,BKN200,0.00,VWS V14.01,2013-04-21 04:47:00,
2013-04-20 23:52:00,44.8,30.5,30.19,SE,131,4.0,5.0,57,0.00,,BKN200,0.00,VWS V14.01,2013-04-21 04:52:00,
2013-04-20 23:57:00,44.6,31.6,30.18,SE,125,4.0,4.0,60,0.00,,BKN200,0.00,VWS V14.01,2013-04-21 04:57:00,